Time;durP1;ratioP1;P1;durP2;ratioP2;P2;SDS_P1;SDS_P2;PMS_P1;PMS_P2;Temp;Humidity;BMP_temperature;BMP_pressure;BME280_temperature;BME280_humidity;BME280_pressure;Samples;Min_cycle;Max_cycle;Signal;HPM_P1;HPM_P2
2022/03/12 00:07:01;;;;;;;2.25;1.15;;;8.80;59.90;;;;;;20801962;28;20083;-79
2022/03/12 00:17:03;;;;;;;1.83;0.93;;;8.80;59.90;;;;;;20807571;28;20044;-80
2022/03/12 00:27:04;;;;;;;2.28;1.20;;;8.70;59.90;;;;;;20822654;28;20405;-81
2022/03/12 00:37:04;;;;;;;3.47;1.58;;;8.70;59.90;;;;;;20804097;28;20032;-80
2022/03/12 00:47:05;;;;;;;2.92;1.65;;;8.70;59.90;;;;;;20803576;28;20462;-80
2022/03/12 00:57:06;;;;;;;3.17;1.45;;;8.70;59.90;;;;;;20819788;28;20088;-80
2022/03/12 01:07:08;;;;;;;2.92;1.40;;;8.70;59.90;;;;;;20801643;28;20481;-79
2022/03/12 01:17:09;;;;;;;3.22;1.40;;;8.70;59.90;;;;;;20799089;28;20474;-79
2022/03/12 01:27:15;;;;;;;2.95;1.40;;;8.70;59.90;;;;;;20796263;28;20042;-80
2022/03/12 01:37:19;;;;;;;2.00;1.20;;;8.70;60.00;;;;;;20799217;28;20040;-79
2022/03/12 01:47:20;;;;;;;4.20;1.30;;;8.70;60.00;;;;;;20800047;28;20125;-79
2022/03/12 01:57:21;;;;;;;2.58;1.48;;;8.70;60.00;;;;;;20832140;28;20426;-79
2022/03/12 02:07:21;;;;;;;2.83;1.33;;;8.70;60.00;;;;;;21255221;22;20048;-79
2022/03/12 02:17:22;;;;;;;1.70;1.10;;;8.70;60.10;;;;;;20895741;28;20021;-80
2022/03/12 02:27:25;;;;;;;2.92;1.45;;;8.60;60.00;;;;;;20878309;28;20040;-80
2022/03/12 02:37:30;;;;;;;2.60;1.20;;;8.60;60.00;;;;;;20878726;28;20036;-79
2022/03/12 02:47:31;;;;;;;2.35;1.27;;;8.60;60.00;;;;;;20893968;28;20115;-81
2022/03/12 02:57:32;;;;;;;2.67;1.50;;;8.60;60.00;;;;;;20909721;28;20060;-80
2022/03/12 03:07:35;;;;;;;3.40;1.30;;;8.60;60.00;;;;;;20893487;28;20068;-80
2022/03/12 03:17:37;;;;;;;2.90;1.50;;;8.60;60.00;;;;;;20892962;28;20032;-79
2022/03/12 03:27:37;;;;;;;2.80;1.85;;;8.60;60.00;;;;;;20891042;28;20044;-81
2022/03/12 03:37:38;;;;;;;3.88;1.33;;;8.60;60.00;;;;;;20850813;28;20033;-79
2022/03/12 03:47:39;;;;;;;2.25;1.38;;;8.50;60.00;;;;;;20875847;28;20122;-79
2022/03/12 03:57:39;;;;;;;1.98;1.10;;;8.50;59.90;;;;;;20857867;28;20595;-80
2022/03/12 04:07:40;;;;;;;1.90;1.48;;;8.50;59.90;;;;;;20890641;28;20033;-79
2022/03/12 04:17:43;;;;;;;1.33;0.88;;;8.50;59.90;;;;;;20872804;28;20094;-81
2022/03/12 04:27:44;;;;;;;2.10;1.08;;;8.50;59.90;;;;;;20872789;28;20028;-81
2022/03/12 04:37:45;;;;;;;2.55;1.23;;;8.50;59.90;;;;;;20871748;28;20055;-80
2022/03/12 04:47:46;;;;;;;2.30;1.50;;;8.50;60.00;;;;;;20868424;28;20037;-80
2022/03/12 04:57:47;;;;;;;1.52;1.08;;;8.50;60.00;;;;;;20869243;28;20407;-80
2022/03/12 05:07:48;;;;;;;3.58;1.50;;;8.50;60.00;;;;;;20869414;28;20069;-80
2022/03/12 05:17:51;;;;;;;4.90;1.75;;;8.40;59.90;;;;;;20885144;28;20041;-81
2022/03/12 05:27:52;;;;;;;3.45;2.03;;;8.50;59.90;;;;;;20851055;28;20036;-78
2022/03/12 05:37:53;;;;;;;3.17;1.40;;;8.40;59.80;;;;;;20864278;28;20036;-78
2022/03/12 05:47:53;;;;;;;3.08;1.10;;;8.40;59.80;;;;;;20890900;28;20368;-78
2022/03/12 05:57:54;;;;;;;2.85;1.35;;;8.40;59.80;;;;;;20845464;28;20075;-77
2022/03/12 06:07:54;;;;;;;2.47;1.17;;;8.40;59.80;;;;;;20859690;28;20392;-78
2022/03/12 06:17:55;;;;;;;1.92;1.25;;;8.40;59.90;;;;;;20876687;28;20045;-77
2022/03/12 06:27:56;;;;;;;3.13;1.38;;;8.40;59.90;;;;;;20859772;28;20060;-78
2022/03/12 06:37:56;;;;;;;2.63;1.30;;;8.40;59.90;;;;;;20860316;28;20033;-77
2022/03/12 06:47:57;;;;;;;2.28;1.20;;;8.30;59.80;;;;;;20866957;28;20032;-85
2022/03/12 06:57:58;;;;;;;2.35;0.95;;;8.30;59.80;;;;;;20897869;28;20055;-77
2022/03/12 07:07:59;;;;;;;1.77;0.98;;;8.40;59.80;;;;;;20957339;28;20117;-75
2022/03/12 07:17:59;;;;;;;2.92;1.30;;;8.40;59.80;;;;;;20924900;28;20029;-76
2022/03/12 07:28:00;;;;;;;2.00;0.95;;;8.30;59.80;;;;;;20872088;28;20033;-77
2022/03/12 07:38:01;;;;;;;1.83;1.27;;;8.30;59.80;;;;;;20858284;28;20395;-77
2022/03/12 07:48:02;;;;;;;3.03;1.23;;;8.30;59.80;;;;;;20903684;28;20387;-75
2022/03/12 07:58:03;;;;;;;2.40;1.30;;;8.30;59.90;;;;;;20881518;28;20039;-74
2022/03/12 08:08:04;;;;;;;2.10;1.17;;;8.30;59.80;;;;;;20886228;28;20128;-75
2022/03/12 08:18:05;;;;;;;2.65;1.00;;;8.30;59.90;;;;;;20902874;28;20053;-78
2022/03/12 08:28:06;;;;;;;2.55;0.98;;;8.30;59.90;;;;;;20901728;28;20082;-76
2022/03/12 08:38:07;;;;;;;2.72;1.13;;;8.40;60.60;;;;;;20900219;28;20033;-79
2022/03/12 08:48:09;;;;;;;2.42;1.13;;;8.40;60.00;;;;;;20851389;28;20502;-72
2022/03/12 08:58:09;;;;;;;2.33;1.17;;;8.40;59.90;;;;;;20883384;28;20029;-76
2022/03/12 09:08:10;;;;;;;1.30;0.87;;;8.40;59.90;;;;;;20885267;28;20031;-75
2022/03/12 09:18:11;;;;;;;3.35;1.40;;;8.50;59.70;;;;;;20884830;28;20395;-76
2022/03/12 09:28:13;;;;;;;5.03;1.10;;;8.50;59.00;;;;;;20881674;28;20037;-75
2022/03/12 09:38:15;;;;;;;2.50;1.48;;;8.50;58.80;;;;;;20864036;28;20408;-77
2022/03/12 09:48:15;;;;;;;2.58;1.13;;;8.50;58.80;;;;;;20913845;28;20029;-75
2022/03/12 09:58:16;;;;;;;26.80;3.50;;;8.50;58.30;;;;;;20895906;28;20048;-77
2022/03/12 10:08:17;;;;;;;12.30;3.33;;;8.50;57.10;;;;;;20909188;28;20032;-74
2022/03/12 10:18:20;;;;;;;273.23;99.90;;;8.60;54.80;;;;;;20861441;28;20435;-79
2022/03/12 10:28:24;;;;;;;247.07;92.80;;;8.60;53.50;;;;;;20894356;28;20515;-76
2022/03/12 10:38:25;;;;;;;71.18;30.30;;;8.60;52.70;;;;;;20878014;28;20060;-74
2022/03/12 10:48:28;;;;;;;97.57;32.67;;;8.60;51.50;;;;;;20845354;28;20033;-74
2022/03/12 10:58:30;;;;;;;31.15;11.20;;;8.60;50.40;;;;;;20875005;28;20409;-76
2022/03/12 11:08:32;;;;;;;16.70;5.07;;;8.70;49.40;;;;;;20874920;28;20033;-76
2022/03/12 11:18:33;;;;;;;13.48;4.88;;;8.80;48.90;;;;;;20857912;28;20424;-73
2022/03/12 11:28:36;;;;;;;12.43;4.18;;;8.80;49.10;;;;;;20874011;28;20043;-76
2022/03/12 11:38:36;;;;;;;9.68;3.45;;;8.80;49.90;;;;;;20889867;28;20044;-75
2022/03/12 11:48:38;;;;;;;6.78;2.95;;;8.70;50.70;;;;;;20857558;28;20033;-70
2022/03/12 11:58:39;;;;;;;7.25;2.55;;;8.70;51.40;;;;;;20875238;28;20279;-79
2022/03/12 12:08:40;;;;;;;7.75;2.55;;;8.70;51.90;;;;;;20871660;28;20455;-80
2022/03/12 12:18:40;;;;;;;6.25;2.63;;;8.70;52.40;;;;;;20886243;28;20488;-82
2022/03/12 12:28:48;;;;;;;7.78;2.08;;;8.70;52.80;;;;;;20886152;28;20025;-80
2022/03/12 12:39:11;;;;;;;7.05;2.00;;;8.70;53.30;;;;;;20869498;28;20033;-81
2022/03/12 12:49:12;;;;;;;5.07;2.17;;;8.70;53.70;;;;;;20868284;28;20029;-82
2022/03/12 12:59:13;;;;;;;5.55;2.33;;;8.70;54.00;;;;;;20868905;28;20048;-76
2022/03/12 13:09:45;;;;;;;5.15;2.25;;;8.70;54.20;;;;;;20865002;28;20033;-77
2022/03/12 13:19:46;;;;;;;3.78;1.85;;;8.70;54.40;;;;;;20861615;28;20047;-76
2022/03/12 13:29:47;;;;;;;8.05;2.03;;;8.80;54.10;;;;;;20893401;28;20459;-76
2022/03/12 13:39:48;;;;;;;4.75;2.10;;;8.80;54.00;;;;;;20859723;28;20037;-75
2022/03/12 13:49:51;;;;;;;8.25;1.92;;;8.80;54.10;;;;;;20874440;28;20079;-75
2022/03/12 14:00:04;;;;;;;2.88;1.38;;;8.90;54.30;;;;;;20885894;28;20393;-76
2022/03/12 14:10:14;;;;;;;3.33;1.20;;;8.90;54.50;;;;;;20857244;28;20041;-75
2022/03/12 14:20:16;;;;;;;4.53;1.20;;;9.00;54.60;;;;;;20880987;28;20037;-79
2022/03/12 14:30:16;;;;;;;4.80;1.17;;;8.90;54.70;;;;;;20848054;28;20029;-85
2022/03/12 14:40:20;;;;;;;10.43;4.40;;;9.00;54.80;;;;;;20843288;28;20052;-77
2022/03/12 14:50:20;;;;;;;3.17;1.70;;;9.00;54.90;;;;;;20856742;28;20858;-77
2022/03/12 15:00:21;;;;;;;4.65;1.67;;;9.10;55.00;;;;;;20890008;28;20047;-78
2022/03/12 15:10:23;;;;;;;2.97;1.55;;;9.10;55.10;;;;;;20870856;28;20029;-77
2022/03/12 15:20:36;;;;;;;1.75;1.17;;;9.20;55.20;;;;;;20906289;28;20037;-77
2022/03/12 15:30:37;;;;;;;4.95;1.10;;;9.20;55.10;;;;;;20873099;28;20408;-78
2022/03/12 15:40:39;;;;;;;2.22;1.13;;;9.30;55.20;;;;;;20897792;28;20118;-77
2022/03/12 15:50:40;;;;;;;4.28;0.88;;;9.30;54.90;;;;;;20894568;28;20534;-76
2022/03/12 16:00:41;;;;;;;2.92;1.13;;;9.40;55.00;;;;;;20882818;28;20037;-77
2022/03/12 16:10:42;;;;;;;2.03;0.90;;;9.40;54.90;;;;;;20897531;28;20075;-78
2022/03/12 16:20:42;;;;;;;1.70;0.60;;;9.40;54.90;;;;;;20870586;28;20032;-75
2022/03/12 16:30:43;;;;;;;1.35;0.77;;;9.40;55.00;;;;;;20899435;28;20037;-74
2022/03/12 16:40:44;;;;;;;2.67;0.60;;;9.40;55.10;;;;;;20867076;28;20120;-71
2022/03/12 16:50:45;;;;;;;2.53;1.83;;;9.40;55.40;;;;;;20886915;28;20025;-79
2022/03/12 17:00:46;;;;;;;1.42;0.70;;;9.30;55.40;;;;;;20935710;28;20033;-78
2022/03/12 17:10:49;;;;;;;1.90;0.82;;;9.30;55.60;;;;;;20881280;28;20063;-71
2022/03/12 17:20:52;;;;;;;1.40;0.70;;;9.30;55.80;;;;;;20896719;28;20075;-77
2022/03/12 17:30:54;;;;;;;1.20;0.63;;;9.20;55.90;;;;;;20861896;28;20029;-78
2022/03/12 17:40:54;;;;;;;0.55;0.35;;;9.10;56.10;;;;;;20797512;28;20401;-79
2022/03/12 17:50:57;;;;;;;2.22;0.75;;;9.10;56.30;;;;;;20895067;28;20029;-78
2022/03/12 18:00:58;;;;;;;0.95;0.60;;;9.10;56.40;;;;;;20880557;28;20067;-79
2022/03/12 18:10:59;;;;;;;2.40;0.70;;;9.10;56.60;;;;;;20809660;28;20033;-79
2022/03/12 18:21:00;;;;;;;2.47;0.82;;;9.00;56.60;;;;;;20835531;28;20029;-79
2022/03/12 18:31:07;;;;;;;1.65;0.73;;;9.00;56.80;;;;;;20873682;28;20083;-80
2022/03/12 18:41:09;;;;;;;1.80;0.40;;;9.00;56.90;;;;;;20874092;28;20044;-79
2022/03/12 18:51:10;;;;;;;1.77;0.75;;;9.00;56.90;;;;;;20890372;28;20442;-79
2022/03/12 19:01:11;;;;;;;0.85;0.50;;;9.00;57.00;;;;;;20874001;28;20143;-80
2022/03/12 19:11:14;;;;;;;1.60;0.50;;;8.90;57.10;;;;;;20837076;28;1039829;-79
2022/03/12 19:21:16;;;;;;;2.15;0.70;;;8.90;57.10;;;;;;20852618;28;20029;-77
2022/03/12 19:31:18;;;;;;;1.13;0.70;;;8.90;57.20;;;;;;20852312;28;20033;-79
2022/03/12 19:41:19;;;;;;;1.08;0.65;;;8.90;57.30;;;;;;20772332;28;20033;-78
2022/03/12 19:51:19;;;;;;;5.15;0.77;;;8.90;57.40;;;;;;20820631;28;20436;-78
2022/03/12 20:01:20;;;;;;;1.98;0.80;;;8.90;57.50;;;;;;20823478;28;20044;-79
2022/03/12 20:11:22;;;;;;;1.08;0.70;;;8.90;57.60;;;;;;20870446;28;20508;-78
2022/03/12 20:21:23;;;;;;;1.42;0.65;;;8.90;57.60;;;;;;20870861;28;20481;-78
2022/03/12 20:31:23;;;;;;;1.73;0.73;;;8.90;57.70;;;;;;20866365;28;20505;-78
2022/03/12 20:41:24;;;;;;;1.27;0.50;;;8.90;57.70;;;;;;20817762;28;20202;-78
2022/03/12 20:51:27;;;;;;;1.17;0.65;;;8.90;57.80;;;;;;20816054;28;20068;-78
2022/03/12 21:01:27;;;;;;;0.68;0.50;;;8.90;57.90;;;;;;20852544;28;20060;-78
2022/03/12 21:11:28;;;;;;;1.40;0.50;;;8.90;57.90;;;;;;20871066;28;20037;-78
2022/03/12 21:21:29;;;;;;;1.95;0.77;;;8.90;58.60;;;;;;20862758;28;20075;-79
2022/03/12 21:31:29;;;;;;;0.98;0.70;;;8.90;58.00;;;;;;20911801;28;20447;-79
2022/03/12 21:41:30;;;;;;;1.08;0.60;;;8.80;58.00;;;;;;20895810;28;20492;-78
2022/03/12 21:51:30;;;;;;;1.65;0.73;;;8.90;58.10;;;;;;20893033;28;20067;-78
2022/03/12 22:01:31;;;;;;;2.13;0.70;;;8.80;58.80;;;;;;20875426;28;20025;-78
2022/03/12 22:11:34;;;;;;;1.25;0.60;;;8.90;58.20;;;;;;20793308;28;20038;-78
2022/03/12 22:21:34;;;;;;;4.25;1.02;;;8.80;58.20;;;;;;20806422;28;20031;-78
2022/03/12 22:31:35;;;;;;;1.77;0.63;;;8.90;58.20;;;;;;20808289;28;20438;-79
2022/03/12 22:41:38;;;;;;;1.15;0.77;;;8.80;58.20;;;;;;20825756;28;20032;-79
2022/03/12 22:51:41;;;;;;;0.90;0.50;;;8.80;58.20;;;;;;20808904;28;20042;-79
2022/03/12 23:01:55;;;;;;;2.40;0.80;;;8.80;58.20;;;;;;20808766;28;20367;-79
2022/03/12 23:11:56;;;;;;;1.40;0.70;;;8.80;58.20;;;;;;20807855;28;20068;-79
2022/03/12 23:21:57;;;;;;;1.23;0.80;;;8.80;58.30;;;;;;20830544;28;20032;-79
2022/03/12 23:32:04;;;;;;;1.90;0.68;;;8.80;58.30;;;;;;20873125;28;20072;-78
2022/03/12 23:42:06;;;;;;;2.10;0.80;;;8.80;58.30;;;;;;20858065;28;20029;-79
2022/03/12 23:52:25;;;;;;;2.05;0.90;;;8.80;58.40;;;;;;20856060;28;20187;-78
